Time;durP1;ratioP1;P1;durP2;ratioP2;P2;SDS_P1;SDS_P2;PMS_P1;PMS_P2;Temp;Humidity;BMP_temperature;BMP_pressure;BME280_temperature;BME280_humidity;BME280_pressure;Samples;Min_cycle;Max_cycle;Signal;HPM_P1;HPM_P2
2022/02/11 00:01:00;;;;;;;1.35;0.52;;;;;;;6.06;97.30;101063.41;4919430;29;20039;-72
2022/02/11 00:08:36;;;;;;;1.60;0.77;;;;;;;6.05;97.34;101073.34;4926066;29;20039;-73
2022/02/11 00:11:01;;;;;;;2.75;0.60;;;;;;;6.00;97.75;101076.16;4920832;29;20036;-73
2022/02/11 00:13:27;;;;;;;7.45;0.95;;;;;;;6.00;98.01;101067.38;4907132;29;20063;-73
2022/02/11 00:15:54;;;;;;;0.50;0.47;;;;;;;5.99;97.56;101069.25;4917260;29;20405;-73
2022/02/11 00:18:21;;;;;;;6.47;0.82;;;;;;;6.02;97.58;101062.50;4907108;29;20051;-74
2022/02/11 00:20:49;;;;;;;1.48;1.35;;;;;;;6.01;97.49;101059.03;4908305;29;20040;-73
2022/02/11 00:23:19;;;;;;;5.38;1.63;;;;;;;6.01;97.59;101067.03;4940776;28;20036;-74
2022/02/11 00:25:59;;;;;;;6.10;0.80;;;;;;;5.98;97.23;101056.19;4926208;29;20036;-73
2022/02/11 00:33:45;;;;;;;0.50;0.50;;;;;;;5.87;97.58;101046.91;4912844;29;20106;-73
2022/02/11 00:36:12;;;;;;;0.50;0.50;;;;;;;5.86;97.96;101048.00;4922552;29;20548;-74
2022/02/11 01:03:05;;;;;;;1.10;0.45;;;;;;;5.52;98.97;101038.00;4913708;29;20472;-74
2022/02/11 01:05:30;;;;;;;1.55;0.68;;;;;;;5.51;98.69;101041.78;4923293;29;20268;-73
2022/02/11 01:07:56;;;;;;;3.13;0.30;;;;;;;5.52;98.73;101038.00;4924295;29;20461;-73
2022/02/11 01:10:23;;;;;;;0.70;0.70;;;;;;;5.50;99.38;101042.88;4924714;29;20031;-73
2022/02/11 01:12:48;;;;;;;1.33;1.02;;;;;;;5.51;99.05;101039.13;4907308;29;20070;-73
2022/02/11 01:15:14;;;;;;;4.43;0.60;;;;;;;5.47;98.83;101036.28;4913247;29;20512;-73
2022/02/11 01:17:46;;;;;;;1.45;0.88;;;;;;;5.41;99.38;101032.19;4920397;29;20042;-73
2022/02/11 01:20:20;;;;;;;1.42;1.02;;;;;;;5.36;99.58;101032.31;4922484;29;20050;-74
2022/02/11 01:23:17;;;;;;;1.08;0.73;;;;;;;5.38;99.68;101032.78;4924440;29;20055;-74
2022/02/11 01:31:21;;;;;;;1.48;0.75;;;;;;;5.35;99.19;101027.28;4925747;29;20040;-73
2022/02/11 02:02:38;;;;;;;0.55;0.43;;;;;;;5.17;100.00;101025.66;4918399;29;20513;-73
2022/02/11 02:13:22;;;;;;;3.45;0.90;;;;;;;5.11;100.00;101010.91;4925557;29;20047;-73
2022/02/11 02:22:17;;;;;;;0.60;0.52;;;;;;;5.01;100.00;100995.97;4924343;29;21117;-73
2022/02/11 02:24:35;;;;;;;1.95;1.42;;;;;;;4.96;100.00;100995.28;4919961;29;20051;-74
2022/02/11 02:37:21;;;;;;;0.55;0.55;;;;;;;4.82;100.00;100982.06;4928500;29;20520;-73
2022/02/11 02:59:04;;;;;;;0.70;0.70;;;;;;;4.89;100.00;100981.63;4941999;28;20056;-77
2022/02/11 03:48:50;;;;;;;1.55;1.30;;;;;;;4.36;100.00;100955.00;4923467;28;20052;-73
2022/02/11 03:59:24;;;;;;;1.10;0.82;;;;;;;4.31;100.00;100947.16;4922843;29;20090;-73
2022/02/11 04:53:25;;;;;;;1.73;0.90;;;;;;;4.00;100.00;100931.16;4908977;29;20405;-74
2022/02/11 04:55:34;;;;;;;0.98;0.88;;;;;;;3.96;100.00;100930.19;4923717;29;20058;-73
2022/02/11 05:00:43;;;;;;;1.77;0.73;;;;;;;3.97;100.00;100922.97;4939707;28;20126;-74
2022/02/11 05:03:09;;;;;;;1.55;1.00;;;;;;;3.98;100.00;100932.53;4950884;28;20740;-74
2022/02/11 05:05:49;;;;;;;1.65;0.73;;;;;;;3.99;100.00;100931.47;4918945;28;20032;-74
2022/02/11 05:08:25;;;;;;;1.65;0.90;;;;;;;3.96;100.00;100916.06;4923304;29;20090;-74
2022/02/11 05:10:56;;;;;;;0.60;0.50;;;;;;;3.95;100.00;100930.50;4921851;29;20039;-74
2022/02/11 05:13:22;;;;;;;4.00;0.93;;;;;;;3.93;100.00;100925.44;4924874;29;20118;-74
2022/02/11 05:15:48;;;;;;;0.65;0.60;;;;;;;3.93;100.00;100924.69;4922811;29;20075;-74
2022/02/11 05:18:14;;;;;;;1.55;0.65;;;;;;;3.93;100.00;100930.00;4925203;29;20137;-74
2022/02/11 05:20:42;;;;;;;0.63;0.63;;;;;;;3.91;100.00;100918.88;4925377;29;20063;-74
2022/02/11 05:23:15;;;;;;;8.75;1.35;;;;;;;3.86;100.00;100921.63;4922844;29;20075;-74
2022/02/11 05:25:42;;;;;;;1.80;0.88;;;;;;;3.80;100.00;100917.50;4917319;29;20090;-74
2022/02/11 05:28:09;;;;;;;0.80;0.73;;;;;;;3.80;100.00;100923.63;4920846;29;20031;-74
2022/02/11 05:30:38;;;;;;;1.42;0.65;;;;;;;3.79;100.00;100915.94;4916666;29;20039;-74
2022/02/11 05:33:05;;;;;;;1.25;0.73;;;;;;;3.73;100.00;100917.94;4923570;29;20477;-74
2022/02/11 05:35:31;;;;;;;0.70;0.63;;;;;;;3.78;100.00;100919.69;4915501;29;20040;-74
2022/02/11 05:37:57;;;;;;;2.97;1.23;;;;;;;3.77;100.00;100918.13;4909176;29;20047;-74
2022/02/11 05:40:23;;;;;;;4.75;1.30;;;;;;;3.74;100.00;100918.72;4925336;29;20047;-74
2022/02/11 05:42:48;;;;;;;1.05;0.88;;;;;;;3.74;100.00;100919.50;4923848;29;20111;-74
2022/02/11 05:45:14;;;;;;;2.72;1.20;;;;;;;3.74;100.00;100913.41;4921836;29;20126;-74
2022/02/11 05:47:39;;;;;;;2.25;1.02;;;;;;;3.70;100.00;100912.44;4923558;29;20423;-74
2022/02/11 05:50:05;;;;;;;2.65;1.10;;;;;;;3.67;100.00;100919.94;4924102;29;20039;-74
2022/02/11 05:52:32;;;;;;;2.13;1.10;;;;;;;3.68;100.00;100910.84;4923585;29;20040;-74
2022/02/11 05:54:58;;;;;;;2.60;1.17;;;;;;;3.64;100.00;100917.88;4919911;29;20043;-74
2022/02/11 05:57:23;;;;;;;1.38;0.95;;;;;;;3.70;100.00;100913.22;4922691;29;20031;-74
2022/02/11 05:59:49;;;;;;;3.17;1.50;;;;;;;3.70;100.00;100915.13;4920432;29;20215;-74
2022/02/11 06:02:15;;;;;;;3.45;1.17;;;;;;;3.71;100.00;100919.34;4922556;29;20044;-73
2022/02/11 06:04:41;;;;;;;1.15;1.00;;;;;;;3.69;100.00;100916.97;4921555;29;20039;-73
2022/02/11 06:07:06;;;;;;;2.28;0.95;;;;;;;3.67;100.00;100911.97;4934538;29;20035;-73
2022/02/11 06:09:32;;;;;;;2.15;1.20;;;;;;;3.70;100.00;100913.22;4911814;28;20036;-74
2022/02/11 06:11:57;;;;;;;2.63;1.27;;;;;;;3.74;100.00;100908.88;4921603;29;20066;-73
2022/02/11 06:14:22;;;;;;;4.03;1.50;;;;;;;3.75;100.00;100902.47;4917827;29;20397;-73
2022/02/11 06:16:48;;;;;;;2.03;1.13;;;;;;;3.77;100.00;100899.50;4935163;29;20738;-74
2022/02/11 06:19:13;;;;;;;2.72;1.40;;;;;;;3.78;100.00;100907.16;4919694;29;20042;-73
2022/02/11 06:21:39;;;;;;;2.03;1.10;;;;;;;3.80;100.00;100910.31;4920489;29;20043;-74
2022/02/11 06:24:04;;;;;;;0.73;0.65;;;;;;;3.81;100.00;100909.25;4918462;29;20028;-74
2022/02/11 06:26:30;;;;;;;1.88;1.20;;;;;;;3.78;100.00;100911.69;4920473;29;20031;-74
2022/02/11 06:28:55;;;;;;;2.38;1.35;;;;;;;3.82;100.00;100916.13;4918275;29;20051;-74
2022/02/11 06:31:21;;;;;;;2.83;1.25;;;;;;;3.85;100.00;100914.75;4914338;29;20040;-74
2022/02/11 06:33:47;;;;;;;1.60;0.88;;;;;;;3.85;100.00;100928.06;4914288;29;20035;-73
2022/02/11 06:36:12;;;;;;;6.22;1.23;;;;;;;3.86;100.00;100921.63;4920263;29;20122;-73
2022/02/11 06:38:38;;;;;;;8.05;1.33;;;;;;;3.84;100.00;100929.94;4921054;29;20564;-74
2022/02/11 06:41:04;;;;;;;4.10;1.58;;;;;;;3.87;100.00;100920.56;4928613;29;20083;-74
2022/02/11 06:43:31;;;;;;;3.67;1.95;;;;;;;3.89;100.00;100916.47;4925733;29;20040;-74
2022/02/11 06:45:56;;;;;;;4.80;2.35;;;;;;;3.88;100.00;100912.25;4927869;29;20036;-74
2022/02/11 06:48:23;;;;;;;4.78;1.85;;;;;;;3.89;100.00;100916.47;4929633;29;20043;-73
2022/02/11 06:50:49;;;;;;;1.98;1.30;;;;;;;3.89;100.00;100921.81;4931215;28;20114;-74
2022/02/11 06:53:15;;;;;;;2.50;1.63;;;;;;;3.91;100.00;100924.19;4928564;29;20051;-74
2022/02/11 06:55:41;;;;;;;3.03;1.27;;;;;;;3.92;100.00;100931.88;4925998;28;20031;-73
2022/02/11 06:58:06;;;;;;;2.63;1.50;;;;;;;3.98;100.00;100929.88;4932865;29;20127;-73
2022/02/11 07:00:33;;;;;;;3.60;1.70;;;;;;;4.00;100.00;100938.34;4928977;29;20122;-74
2022/02/11 07:02:59;;;;;;;3.47;1.30;;;;;;;3.97;100.00;100945.06;4936455;28;20536;-73
2022/02/11 07:05:25;;;;;;;3.20;1.42;;;;;;;3.94;100.00;100947.53;4925917;28;20122;-73
2022/02/11 07:07:51;;;;;;;4.45;1.77;;;;;;;3.99;100.00;100944.78;4946549;28;20045;-74
2022/02/11 07:10:17;;;;;;;2.55;1.17;;;;;;;3.99;100.00;100956.19;4942802;28;20493;-73
2022/02/11 07:12:42;;;;;;;11.68;1.85;;;;;;;3.98;100.00;100937.84;4936591;29;20043;-73
2022/02/11 07:15:08;;;;;;;2.80;1.50;;;;;;;3.92;100.00;100955.84;4933015;29;20382;-73
2022/02/11 07:17:34;;;;;;;2.35;1.20;;;;;;;3.93;100.00;100949.41;4941062;28;20534;-74
2022/02/11 07:20:00;;;;;;;3.58;1.77;;;;;;;3.99;100.00;100958.09;4924716;29;20043;-72
2022/02/11 07:22:30;;;;;;;3.08;1.65;;;;;;;4.04;100.00;100950.75;4922480;29;20040;-71
2022/02/11 07:24:56;;;;;;;4.13;1.35;;;;;;;4.09;100.00;100961.28;4916867;28;20034;-74
2022/02/11 07:27:21;;;;;;;5.38;1.30;;;;;;;4.14;100.00;100963.81;4925127;29;20588;-73
2022/02/11 07:29:47;;;;;;;2.88;1.20;;;;;;;4.12;100.00;100978.56;4931885;29;20194;-73
2022/02/11 07:32:12;;;;;;;1.65;1.27;;;;;;;4.16;100.00;100972.28;4933727;29;20039;-73
2022/02/11 07:34:38;;;;;;;2.65;1.42;;;;;;;4.16;100.00;100977.63;4944845;28;20049;-74
2022/02/11 07:37:04;;;;;;;5.68;1.42;;;;;;;4.20;100.00;100980.50;4924604;28;20436;-73
2022/02/11 07:43:28;;;;;;;1.85;1.27;;;;;;;4.13;100.00;100986.22;4925068;29;20508;-71
2022/02/11 07:45:53;;;;;;;2.85;1.42;;;;;;;4.14;100.00;100992.34;4919705;29;20409;-70
2022/02/11 07:48:19;;;;;;;1.67;1.38;;;;;;;4.15;100.00;100999.25;4924374;29;20036;-72
2022/02/11 07:50:44;;;;;;;1.65;1.20;;;;;;;4.16;100.00;101001.59;4924882;29;20055;-73
2022/02/11 07:53:10;;;;;;;1.13;1.00;;;;;;;4.22;100.00;101012.97;4910186;29;20413;-72
2022/02/11 07:55:35;;;;;;;1.15;0.95;;;;;;;4.26;100.00;101011.22;4924045;29;20115;-71
2022/02/11 07:58:00;;;;;;;2.20;1.35;;;;;;;4.24;100.00;101011.53;4940675;28;20550;-72
2022/02/11 08:00:27;;;;;;;6.75;1.95;;;;;;;4.24;100.00;101016.09;4918202;29;20035;-72
2022/02/11 08:02:52;;;;;;;4.68;1.75;;;;;;;4.31;100.00;101024.44;4919572;29;20122;-72
2022/02/11 08:05:17;;;;;;;3.45;1.98;;;;;;;4.36;100.00;101027.78;4921561;29;20556;-71
2022/02/11 08:07:44;;;;;;;3.13;1.85;;;;;;;4.37;100.00;101028.56;4916438;29;20531;-70
2022/02/11 08:10:10;;;;;;;2.83;1.42;;;;;;;4.40;100.00;101031.41;4920939;29;20516;-73
2022/02/11 08:12:36;;;;;;;2.70;1.48;;;;;;;4.34;100.00;101029.97;4924226;29;20039;-72
2022/02/11 08:15:03;;;;;;;3.80;1.50;;;;;;;4.41;100.00;101035.63;4917391;29;20043;-72
2022/02/11 08:17:30;;;;;;;7.28;2.00;;;;;;;4.48;100.00;101030.69;4911561;29;21961;-75
2022/02/11 08:19:56;;;;;;;3.85;2.10;;;;;;;4.63;100.00;101026.06;4916683;29;20043;-74
2022/02/11 08:22:21;;;;;;;3.90;1.42;;;;;;;4.71;100.00;101038.63;4935435;28;20035;-73
2022/02/11 08:24:47;;;;;;;6.05;1.90;;;;;;;4.83;100.00;101041.53;4933145;29;20118;-71
2022/02/11 08:27:14;;;;;;;2.72;1.80;;;;;;;4.99;100.00;101045.38;4920799;29;20048;-72
2022/02/11 08:29:43;;;;;;;5.93;1.75;;;;;;;5.05;100.00;101052.94;4923167;29;20038;-72
2022/02/11 08:32:09;;;;;;;3.35;1.98;;;;;;;5.12;100.00;101057.84;4923231;29;20047;-71
2022/02/11 08:34:35;;;;;;;3.50;1.45;;;;;;;5.17;100.00;101071.03;4918014;29;20094;-72
2022/02/11 08:37:00;;;;;;;5.30;1.98;;;;;;;5.17;100.00;101063.03;4921323;29;20027;-74
2022/02/11 08:39:26;;;;;;;3.00;1.75;;;;;;;5.17;100.00;101079.84;4917788;29;20032;-72
2022/02/11 08:41:53;;;;;;;3.78;1.63;;;;;;;5.12;100.00;101069.31;4916232;29;20046;-74
2022/02/11 08:44:18;;;;;;;5.78;1.77;;;;;;;5.11;100.00;101077.63;4909078;29;20094;-75
2022/02/11 08:46:44;;;;;;;3.75;1.65;;;;;;;5.11;100.00;101080.28;4919509;29;20039;-73
2022/02/11 08:49:09;;;;;;;7.60;1.73;;;;;;;5.10;100.00;101095.50;4936259;28;20100;-75
2022/02/11 08:51:34;;;;;;;2.05;1.33;;;;;;;5.08;100.00;101095.03;4920814;29;20038;-72
2022/02/11 08:54:00;;;;;;;2.90;1.52;;;;;;;5.14;100.00;101107.16;4921286;29;20045;-76
2022/02/11 08:56:28;;;;;;;7.32;1.58;;;;;;;5.17;100.00;101105.72;4913066;29;20136;-72
2022/02/11 08:58:54;;;;;;;2.13;1.65;;;;;;;5.20;100.00;101107.81;4920202;29;20034;-73
2022/02/11 09:01:19;;;;;;;3.42;1.90;;;;;;;5.26;100.00;101104.69;4916829;29;20521;-73
2022/02/11 09:03:45;;;;;;;4.43;1.92;;;;;;;5.27;100.00;101110.81;4920917;29;20323;-71
2022/02/11 09:06:10;;;;;;;3.53;1.65;;;;;;;5.26;100.00;101120.72;4918420;29;20067;-75
2022/02/11 09:08:36;;;;;;;3.92;2.05;;;;;;;5.29;100.00;101120.09;4918618;29;20091;-72
2022/02/11 09:11:05;;;;;;;5.70;2.20;;;;;;;5.29;100.00;101129.97;4919720;29;20415;-71
2022/02/11 09:13:31;;;;;;;5.35;2.03;;;;;;;5.28;100.00;101133.75;4918432;29;20047;-74
2022/02/11 09:15:57;;;;;;;2.90;1.73;;;;;;;5.32;100.00;101140.81;4919979;29;20043;-72
2022/02/11 09:18:22;;;;;;;2.35;1.40;;;;;;;5.29;100.00;101146.78;4915550;29;20042;-75
2022/02/11 09:20:49;;;;;;;5.68;2.10;;;;;;;5.32;100.00;101161.41;4920115;29;20083;-71
2022/02/11 09:23:15;;;;;;;3.00;2.28;;;;;;;5.35;100.00;101163.47;4918725;29;20492;-73
2022/02/11 09:25:40;;;;;;;5.13;1.60;;;;;;;5.40;100.00;101164.13;4938015;28;20047;-72
2022/02/11 09:28:06;;;;;;;4.10;2.03;;;;;;;5.47;100.00;101174.38;4921611;29;20090;-72
2022/02/11 09:30:33;;;;;;;3.45;1.42;;;;;;;5.49;100.00;101175.66;4920890;29;20036;-73
2022/02/11 09:33:00;;;;;;;3.65;2.15;;;;;;;5.51;100.00;101175.31;4917171;29;20058;-71
2022/02/11 09:35:28;;;;;;;2.88;1.35;;;;;;;5.50;100.00;101193.22;4920508;29;20086;-71
2022/02/11 09:37:55;;;;;;;3.42;1.98;;;;;;;5.52;100.00;101195.59;4922708;29;20043;-71
2022/02/11 09:40:21;;;;;;;1.85;1.48;;;;;;;5.56;100.00;101191.19;4919091;29;20028;-71
2022/02/11 09:42:47;;;;;;;3.38;1.50;;;;;;;5.58;100.00;101207.72;4912566;29;20135;-71
2022/02/11 09:45:14;;;;;;;1.73;1.42;;;;;;;5.61;100.00;101219.69;4917453;29;20050;-72
2022/02/11 09:47:40;;;;;;;2.38;1.60;;;;;;;5.67;100.00;101231.81;4915964;29;20143;-72
2022/02/11 09:50:07;;;;;;;3.30;1.85;;;;;;;5.70;100.00;101236.53;4918708;29;20046;-72
2022/02/11 09:52:44;;;;;;;3.25;1.80;;;;;;;5.67;100.00;101242.50;4917280;29;20046;-71
2022/02/11 09:57:55;;;;;;;2.05;1.58;;;;;;;5.77;100.00;101247.56;4920802;29;20408;-72
2022/02/11 10:00:23;;;;;;;3.53;1.83;;;;;;;5.78;100.00;101260.63;4922912;29;20036;-72
2022/02/11 10:02:51;;;;;;;1.98;1.40;;;;;;;5.85;100.00;101266.34;4937379;28;20024;-71
2022/02/11 10:05:25;;;;;;;3.78;1.67;;;;;;;5.86;100.00;101283.16;4921343;29;20032;-71
2022/02/11 10:07:50;;;;;;;2.22;1.20;;;;;;;5.85;100.00;101286.91;4920734;29;20630;-71
2022/02/11 10:10:38;;;;;;;2.15;1.70;;;;;;;5.81;100.00;101284.03;4934597;28;20028;-70
2022/02/11 10:13:08;;;;;;;2.40;1.42;;;;;;;5.80;100.00;101285.16;4922728;29;20134;-71
2022/02/11 10:15:40;;;;;;;1.80;1.45;;;;;;;5.81;100.00;101283.25;4917735;29;20044;-72
2022/02/11 10:18:06;;;;;;;4.25;1.25;;;;;;;5.76;100.00;101294.88;4918449;29;20082;-72
2022/02/11 10:20:49;;;;;;;2.17;1.35;;;;;;;5.86;100.00;101310.69;4918176;29;20072;-72
2022/02/11 10:23:19;;;;;;;2.47;1.88;;;;;;;5.99;100.00;101311.69;4915944;29;20047;-72
2022/02/11 10:26:10;;;;;;;3.88;1.58;;;;;;;6.11;100.00;101322.59;4921009;29;20043;-72
2022/02/11 10:28:43;;;;;;;5.53;1.88;;;;;;;6.20;100.00;101324.19;4919974;29;20513;-72
2022/02/11 10:31:10;;;;;;;2.03;1.08;;;;;;;6.38;100.00;101335.75;4919091;29;20031;-71
2022/02/11 10:33:56;;;;;;;1.20;0.95;;;;;;;6.38;100.00;101335.75;4921207;29;20140;-71
2022/02/11 10:36:30;;;;;;;1.98;1.27;;;;;;;6.36;99.64;101351.31;4920556;29;20106;-72
2022/02/11 10:39:03;;;;;;;2.55;1.45;;;;;;;6.42;99.34;101368.81;4922992;29;20040;-72
2022/02/11 10:41:29;;;;;;;1.65;1.17;;;;;;;6.48;99.12;101377.47;4920218;29;20044;-72
2022/02/11 10:44:08;;;;;;;2.88;1.40;;;;;;;6.47;99.34;101381.25;4920547;29;20080;-72
2022/02/11 10:46:42;;;;;;;2.45;1.17;;;;;;;6.51;98.98;101385.69;4935027;28;20036;-72
2022/02/11 10:49:09;;;;;;;2.75;1.17;;;;;;;6.60;98.73;101389.16;4922630;29;20055;-72
2022/02/11 10:51:44;;;;;;;3.92;1.60;;;;;;;6.60;98.52;101388.41;4926012;28;20401;-72
2022/02/11 10:54:35;;;;;;;2.08;1.13;;;;;;;6.78;98.97;101398.03;4929437;28;20421;-73
2022/02/11 10:57:04;;;;;;;2.40;1.35;;;;;;;6.84;99.06;101400.28;4923814;29;20044;-73
2022/02/11 10:59:32;;;;;;;1.45;1.17;;;;;;;6.89;99.09;101397.44;4922662;29;20031;-73
2022/02/11 11:02:04;;;;;;;3.92;1.52;;;;;;;7.05;98.74;101411.19;4912729;29;20523;-72
2022/02/11 11:04:30;;;;;;;3.80;1.77;;;;;;;7.09;98.55;101423.63;4912616;29;20099;-72
2022/02/11 11:06:57;;;;;;;2.95;1.60;;;;;;;7.15;98.09;101427.75;4925041;29;20036;-72
2022/02/11 11:09:25;;;;;;;5.15;1.80;;;;;;;7.12;97.72;101431.03;4930292;28;20036;-72
2022/02/11 11:11:55;;;;;;;3.33;1.98;;;;;;;7.11;97.72;101437.50;4918414;29;20036;-71
2022/02/11 11:14:27;;;;;;;3.97;1.98;;;;;;;7.08;97.17;101448.81;4921189;29;20035;-72
2022/02/11 11:16:55;;;;;;;4.50;1.80;;;;;;;7.12;97.60;101457.81;4923566;29;20043;-72
2022/02/11 11:19:22;;;;;;;3.97;1.88;;;;;;;7.13;97.46;101462.09;4923456;29;20036;-72
2022/02/11 11:22:11;;;;;;;4.45;2.10;;;;;;;7.18;97.20;101464.59;4922675;29;20126;-72
2022/02/11 11:24:57;;;;;;;2.72;1.77;;;;;;;7.15;97.13;101465.25;4918728;29;20599;-71
2022/02/11 11:27:50;;;;;;;3.97;2.03;;;;;;;7.24;96.73;101473.28;4919319;29;20035;-73
2022/02/11 11:30:29;;;;;;;3.72;2.00;;;;;;;7.28;96.68;101479.59;4923534;29;20625;-73
2022/02/11 11:33:06;;;;;;;3.58;1.90;;;;;;;7.23;96.14;101485.13;4924643;29;20050;-73
2022/02/11 11:36:01;;;;;;;4.70;2.08;;;;;;;7.27;96.08;101484.19;4922402;29;20145;-73
2022/02/11 11:38:39;;;;;;;3.50;1.63;;;;;;;7.37;95.95;101490.34;4924257;29;20090;-73
2022/02/11 11:41:14;;;;;;;4.47;2.05;;;;;;;7.39;95.67;101502.34;4933933;28;20047;-76
2022/02/11 11:43:41;;;;;;;2.53;1.67;;;;;;;7.46;95.31;101507.22;4937111;29;20032;-73
2022/02/11 11:46:16;;;;;;;3.33;1.40;;;;;;;7.31;95.00;101516.50;4921561;29;20051;-72
2022/02/11 11:48:52;;;;;;;2.60;1.45;;;;;;;7.28;95.01;101517.09;4924440;29;20510;-77
2022/02/11 11:51:18;;;;;;;3.80;1.35;;;;;;;7.32;94.43;101524.22;4919278;29;20035;-72
2022/02/11 11:53:44;;;;;;;2.45;1.15;;;;;;;7.44;94.43;101525.50;4921954;29;20039;-72
2022/02/11 11:56:49;;;;;;;1.33;1.08;;;;;;;7.53;95.15;101523.66;4924144;29;20396;-73
2022/02/11 11:59:17;;;;;;;3.17;1.42;;;;;;;7.54;94.46;101527.88;4917219;29;20066;-72
2022/02/11 12:01:59;;;;;;;1.70;1.17;;;;;;;7.57;94.01;101527.28;4920103;29;20044;-73
2022/02/11 12:04:45;;;;;;;3.22;1.65;;;;;;;7.70;93.45;101537.06;4919338;29;20039;-74
2022/02/11 12:07:14;;;;;;;3.60;1.42;;;;;;;7.71;93.30;101538.63;4921552;29;20043;-72
2022/02/11 12:09:49;;;;;;;2.63;1.48;;;;;;;7.68;93.25;101548.13;4919859;29;20040;-74
2022/02/11 12:12:20;;;;;;;5.18;1.58;;;;;;;7.68;93.36;101553.47;4920348;29;20043;-76
2022/02/11 12:14:46;;;;;;;;;;;;;;;7.72;93.62;101554.44;4920944;29;20407;-72
2022/02/11 12:17:14;;;;;;;1.95;1.23;;;;;;;7.77;94.10;101574.91;4935593;28;19918;-72
2022/02/11 12:19:41;;;;;;;3.85;1.48;;;;;;;7.81;93.82;101575.88;4920710;29;20515;-74
2022/02/11 12:22:07;;;;;;;2.72;1.60;;;;;;;7.81;93.38;101594.63;4921951;29;20063;-72
2022/02/11 12:27:30;;;;;;;7.65;1.30;;;;;;;7.76;91.99;101590.22;4931034;28;20583;-77
2022/02/11 12:30:06;;;;;;;3.70;1.42;;;;;;;7.75;92.52;101585.16;4915825;29;20044;-75
2022/02/11 12:32:39;;;;;;;1.92;1.70;;;;;;;7.79;91.98;101607.56;4932880;29;20051;-73
2022/02/11 12:35:07;;;;;;;1.92;1.27;;;;;;;7.87;91.91;101599.56;4919800;29;20043;-72
2022/02/11 12:37:33;;;;;;;6.70;1.98;;;;;;;7.91;91.99;101613.13;4919512;29;20032;-72
2022/02/11 12:40:06;;;;;;;2.88;1.33;;;;;;;7.92;91.65;101614.69;4919575;29;20046;-72
2022/02/11 12:42:34;;;;;;;4.43;1.48;;;;;;;7.93;91.48;101608.22;4918723;29;20035;-72
2022/02/11 12:45:00;;;;;;;3.33;1.40;;;;;;;8.01;90.72;101620.88;4934190;29;20039;-74
2022/02/11 12:47:26;;;;;;;2.90;1.45;;;;;;;8.03;90.88;101616.75;4920417;29;20043;-74
2022/02/11 12:49:52;;;;;;;1.95;1.40;;;;;;;8.09;90.00;101618.19;4920229;29;20035;-72
2022/02/11 12:52:23;;;;;;;2.97;1.45;;;;;;;8.21;89.56;101615.69;4918294;29;20040;-73
2022/02/11 12:54:59;;;;;;;;;;;;;;;8.16;89.58;101629.25;4917682;29;20043;-72
2022/02/11 12:57:26;;;;;;;2.40;1.10;;;;;;;8.21;89.64;101636.34;4919662;29;20729;-74
2022/02/11 12:59:53;;;;;;;1.95;1.63;;;;;;;8.15;89.62;101646.44;4918377;29;20066;-73
2022/02/11 13:02:23;;;;;;;3.00;1.63;;;;;;;8.19;89.79;101641.25;4918916;29;20040;-73
2022/02/11 13:05:06;;;;;;;2.17;1.58;;;;;;;8.16;89.30;101653.41;4918053;29;20568;-73
2022/02/11 13:07:34;;;;;;;3.08;1.50;;;;;;;8.25;89.64;101658.00;4916024;29;20046;-73
2022/02/11 13:09:59;;;;;;;6.65;1.40;;;;;;;8.28;89.53;101663.56;4914988;29;20043;-73
2022/02/11 13:12:36;;;;;;;2.50;1.45;;;;;;;8.29;89.46;101665.13;4921047;29;20047;-73
2022/02/11 13:15:03;;;;;;;5.43;1.63;;;;;;;8.26;89.09;101665.75;4934445;29;20071;-73
2022/02/11 13:17:30;;;;;;;2.67;2.10;;;;;;;8.21;89.50;101666.66;4921944;29;20048;-73
2022/02/11 13:20:11;;;;;;;4.35;1.70;;;;;;;8.08;90.32;101672.94;4917379;29;20056;-73
2022/02/11 13:22:37;;;;;;;6.32;1.92;;;;;;;8.09;89.62;101673.75;4922745;29;20063;-73
2022/02/11 13:25:05;;;;;;;2.25;1.50;;;;;;;7.98;90.95;101683.97;4923630;29;20043;-74
2022/02/11 13:27:40;;;;;;;2.63;1.58;;;;;;;7.83;92.91;101689.75;4919297;29;20488;-73
2022/02/11 13:30:06;;;;;;;2.13;1.50;;;;;;;7.77;95.01;101708.97;4920561;29;20042;-73
2022/02/11 13:32:31;;;;;;;2.45;1.50;;;;;;;7.60;97.75;101725.78;4922896;29;20102;-73
2022/02/11 13:35:05;;;;;;;2.22;1.50;;;;;;;7.45;99.03;101728.06;4922758;29;20122;-73
2022/02/11 13:37:38;;;;;;;1.92;1.20;;;;;;;7.39;100.00;101735.44;4919481;29;20118;-73
2022/02/11 13:40:14;;;;;;;1.13;0.85;;;;;;;7.19;100.00;101734.03;4923054;29;20465;-73
2022/02/11 13:42:40;;;;;;;0.77;0.70;;;;;;;6.99;100.00;101747.91;4921735;29;20054;-73
2022/02/11 13:45:08;;;;;;;0.93;0.82;;;;;;;6.70;100.00;101736.78;4918894;29;20462;-73
2022/02/11 13:47:33;;;;;;;1.00;0.90;;;;;;;6.57;100.00;101767.06;4921909;29;20047;-72
2022/02/11 13:50:06;;;;;;;4.22;0.90;;;;;;;6.48;100.00;101771.53;4923548;29;20039;-73
2022/02/11 13:53:06;;;;;;;1.13;0.90;;;;;;;6.42;100.00;101785.31;4915067;29;20099;-72
2022/02/11 13:55:32;;;;;;;0.68;0.68;;;;;;;6.34;100.00;101789.47;4915136;29;20028;-72
2022/02/11 13:58:12;;;;;;;0.80;0.68;;;;;;;6.33;100.00;101798.56;4922612;29;20043;-72
2022/02/11 14:00:38;;;;;;;0.60;0.60;;;;;;;6.36;100.00;101798.00;4922091;29;20482;-72
2022/02/11 14:03:04;;;;;;;1.33;0.50;;;;;;;6.28;100.00;101815.53;4920373;29;20043;-73
2022/02/11 14:05:42;;;;;;;0.40;0.40;;;;;;;6.26;100.00;101817.72;4921072;29;20127;-72
2022/02/11 14:08:09;;;;;;;0.70;0.70;;;;;;;6.37;100.00;101819.09;4924203;29;20183;-72
2022/02/11 14:10:35;;;;;;;0.63;0.40;;;;;;;6.42;100.00;101817.41;4919292;29;20035;-72
2022/02/11 14:13:09;;;;;;;0.20;0.20;;;;;;;6.23;100.00;101836.22;4921044;29;20044;-73
2022/02/11 14:15:36;;;;;;;3.83;0.57;;;;;;;6.26;100.00;101840.97;4922213;29;20032;-72
2022/02/11 14:18:06;;;;;;;0.35;0.32;;;;;;;6.40;100.00;101865.84;4921138;29;20044;-73
2022/02/11 14:20:35;;;;;;;1.08;0.50;;;;;;;6.57;100.00;101866.06;4930977;28;21028;-72
2022/02/11 14:23:14;;;;;;;0.70;0.52;;;;;;;6.58;99.05;101874.88;4925164;29;20039;-72
2022/02/11 14:25:42;;;;;;;0.65;0.43;;;;;;;6.47;96.29;101892.19;4925991;29;20059;-73
2022/02/11 14:28:09;;;;;;;0.28;0.28;;;;;;;6.49;94.88;101898.84;4920953;29;20067;-72
2022/02/11 14:30:36;;;;;;;0.30;0.30;;;;;;;6.69;94.81;101900.34;4941013;29;20087;-72
2022/02/11 14:33:05;;;;;;;0.47;0.43;;;;;;;6.68;94.76;101910.25;4927354;29;20032;-72
2022/02/11 14:35:30;;;;;;;3.38;0.80;;;;;;;6.94;92.92;101907.88;4926069;29;20437;-72
2022/02/11 14:37:56;;;;;;;3.90;0.55;;;;;;;7.02;92.01;101905.31;4942890;29;20111;-73
2022/02/11 14:40:21;;;;;;;0.32;0.32;;;;;;;7.21;91.61;101924.72;4926453;29;20408;-72
2022/02/11 14:42:47;;;;;;;0.35;0.35;;;;;;;7.46;89.64;101925.25;4930812;29;20485;-73
2022/02/11 14:45:12;;;;;;;1.38;0.55;;;;;;;7.57;88.13;101931.97;4926335;29;20122;-72
2022/02/11 14:47:37;;;;;;;0.73;0.50;;;;;;;7.57;88.18;101935.44;4927238;29;20031;-73
2022/02/11 14:50:06;;;;;;;1.48;0.50;;;;;;;7.82;86.69;101936.75;4918412;28;20035;-72
2022/02/11 14:52:32;;;;;;;0.38;0.30;;;;;;;7.93;85.50;101948.81;4924587;29;20605;-73
2022/02/11 14:54:58;;;;;;;0.52;0.30;;;;;;;8.06;84.25;101946.06;4924219;29;20047;-72
2022/02/11 14:57:24;;;;;;;0.50;0.40;;;;;;;8.00;82.55;101949.97;4925969;29;20027;-72
2022/02/11 14:59:49;;;;;;;0.60;0.50;;;;;;;8.11;82.27;101953.19;4924196;29;20035;-73
2022/02/11 15:02:15;;;;;;;0.95;0.60;;;;;;;8.12;81.33;101960.16;4925920;29;20088;-73
2022/02/11 15:04:41;;;;;;;3.10;0.60;;;;;;;8.27;77.70;101973.22;4927048;29;20044;-73
2022/02/11 15:07:07;;;;;;;1.08;0.20;;;;;;;8.17;76.53;101976.91;4925406;29;20050;-73
2022/02/11 15:09:33;;;;;;;0.45;0.40;;;;;;;8.13;75.39;101989.34;4921282;29;20058;-73
2022/02/11 15:11:59;;;;;;;0.32;0.32;;;;;;;7.95;75.57;101986.84;4916628;29;20031;-73
2022/02/11 15:14:27;;;;;;;0.28;0.28;;;;;;;8.03;74.04;101996.88;4916179;29;20643;-73
2022/02/11 15:16:53;;;;;;;1.33;0.50;;;;;;;7.94;73.78;101996.78;4918585;29;20039;-73
2022/02/11 15:19:18;;;;;;;0.30;0.30;;;;;;;7.88;72.97;101997.19;4929067;28;20039;-73
2022/02/11 15:21:45;;;;;;;1.30;0.77;;;;;;;7.99;72.56;101998.56;4919004;28;20118;-73
2022/02/11 15:24:12;;;;;;;0.60;0.30;;;;;;;7.87;72.35;102007.16;4923716;29;20051;-72
2022/02/11 15:26:37;;;;;;;0.70;0.30;;;;;;;7.87;72.74;102012.50;4922963;29;20141;-73
2022/02/11 15:29:03;;;;;;;0.43;0.22;;;;;;;7.80;71.73;102017.47;4939631;28;20128;-73